Cotulla, Texas
Current Conditions -  °F | °C
As of 8:32 AM on Friday 31 Oct 2014 (Local Time) from KCOT Reporting Station
Overcast Overcast  
Wind Chill: 66°   Ceiling: 3000
Heat Index: 66°   Visibility: 10mi
Dew Point: 64°   Wind: 8mph
Humidity: 93%   Direction: 70°ENE
Pressure: 30.19"   Gusts: NA
Location:  28.44°N, 99.24°W
Report Text: KCOT 311332Z AUTO 07007KT 10SM SCT013 BKN030 OVC043 19/18 A3019 RMK AO2 LTG DSNT W RAE31 P0001 T01890178
Loading
Personal Weather Stations






























Interactive Weather Map
Tropical Storm Tracking
New forecast layout! Learn more

10-Day Weather Forecast

Advertisements
Track Severe Weather on mobile